Station: Roxby Downs

  Atmospheric Gas Attenuation - ITU Rec 676-11   --------------- db/100km ---------------
Date Time Temp RH % AH g/m3 Dew Point Wind Direction Speed kph Gust kph Barometer mB Rainfall Since 9am 24GHz 47GHz 76GHz 122GHz 134GHz 241GHz
15 01:00 11.9 83 8.79 9.1 9 13 1019.3 0 20.1 27.0 41.8 109.8 104.0 357.6
15 00:50 12.2 83 8.96 9.4 11 13 1019.1 0 20.4 27.2 42.4 111.2 105.9 364.3
15 00:40 12.3 82 8.9 9.3 13 15 1019.2 0 20.3 27.1 42.1 110.4 104.9 361.0
15 00:30 12.5 80 8.8 9.1 9 9 1019.5 0 20.1 26.8 41.6 109.1 103.3 355.4
15 00:20 12.7 79 8.79 9.2 11 13 1019.4 0 20.0 26.8 41.4 108.7 102.9 354.0
15 00:10 12.9 78 8.79 9.2 13 15 1019.4 0 20.0 26.7 41.3 108.4 102.6 353.1
15 00:00 13.1 77 8.79 9.2 13 15 1019.5 0 20.0 26.6 41.2 108.1 102.4 352.2
14 23:50 13.2 77 8.84 9.3 15 17 1019.4 0 20.1 26.7 41.4 108.5 102.9 354.1
14 23:40 13.3 76 8.78 9.2 17 19 1019.5 0 20.0 26.6 41.1 107.7 102.0 350.8
14 23:30 13.5 75 8.77 9.2 13 17 1019.5 0 20.0 26.5 40.9 107.3 101.6 349.5
14 23:20 13.7 73 8.64 9 13 15 1019.4 0 19.7 26.2 40.3 105.7 99.6 342.5
14 23:10 14.1 72 8.74 9.1 13 15 1019.3 0 19.9 26.3 40.5 106.2 100.4 345.4
14 23:00 14.2 71 8.67 9 15 19 1019.2 0 19.7 26.1 40.1 105.3 99.3 341.6
14 22:50 14.4 70 8.65 9 17 19 1019.2 0 19.7 26.0 40.0 104.8 98.8 339.9
14 22:40 14.4 69 8.53 8.8 19 20 1019.2 0 19.4 25.8 39.5 103.5 97.2 334.3
14 22:30 14.5 68 8.46 8.7 15 17 1019.1 0 19.3 25.7 39.2 102.6 96.2 330.7
14 22:20 14.5 68 8.46 8.7 19 22 1019.3 0 19.3 25.7 39.2 102.7 96.2 330.7
14 22:10 14.1 67 8.13 8.1 17 19 1019.4 0 18.6 25.3 38.1 99.7 92.4 317.3
14 22:00 14.2 66 8.06 7.9 13 19 1019.4 0 18.4 25.1 37.7 98.8 91.3 313.8
14 21:50 14.4 65 8.04 7.9 15 19 1019.3 0 18.4 25.1 37.6 98.4 90.8 312.0
14 21:40 14.2 65 7.94 7.7 15 17 1019.3 0 18.2 25.0 37.3 97.6 89.8 308.3
14 21:30 13.6 67 7.89 7.6 11 13 1019.4 0 18.1 25.0 37.3 97.8 89.8 308.4
14 21:20 13 67 7.6 7 11 13 1019.3 0 17.5 24.7 36.5 95.5 86.8 297.5
14 21:10 13.4 65 7.56 7 11 13 1019.3 0 17.4 24.6 36.1 94.6 85.8 294.2
14 21:00 13.2 65 7.46 6.8 11 13 1019.2 0 17.2 24.5 35.8 93.8 84.7 290.5
14 20:50 13.2 65 7.46 6.8 9 11 1019.3 0 17.2 24.5 35.8 93.8 84.7 290.5
14 20:40 13.5 65 7.6 7.1 15 15 1019.1 0 17.5 24.6 36.2 94.9 86.2 295.6
14 20:30 13.7 64 7.58 7 11 13 1019.1 0 17.4 24.5 36.1 94.4 85.7 294.0
14 20:20 13.8 64 7.63 7.1 11 11 1018.9 0 17.5 24.6 36.2 94.8 86.2 295.8
14 20:10 14 64 7.72 7.3 11 11 1018.9 0 17.7 24.6 36.5 95.5 87.2 299.1
14 20:00 13.9 63 7.55 7 13 13 1018.7 0 17.3 24.4 35.9 93.8 85.1 291.8
14 19:50 14.1 62 7.52 6.9 11 13 1018.6 0 17.3 24.3 35.6 93.3 84.5 289.7
14 19:40 14.5 61 7.59 7.1 11 11 1018.6 0 17.4 24.3 35.7 93.5 84.9 291.4
14 19:30 14.6 60 7.51 6.9 9 9 1018.6 0 17.2 24.1 35.4 92.6 83.8 287.5
14 19:20 15.3 59 7.7 7.3 7 9 1018.5 0 17.6 24.2 35.8 93.7 85.4 293.3
14 19:10 15.6 57 7.58 7.1 9 11 1018.4 0 17.3 24.0 35.2 92.1 83.6 286.9
14 19:00 15.9 57 7.72 7.4 11 15 1018.4 0 17.6 24.1 35.6 93.2 85.0 291.9
14 18:50 16 57 7.77 7.5 13 13 1018.2 0 17.7 24.2 35.7 93.6 85.5 293.7
14 18:40 16.1 55 7.54 7.1 11 13 1018.2 0 17.2 23.8 34.8 91.1 82.6 283.3
14 18:30 16.7 54 7.67 7.4 13 17 1018.2 0 17.5 23.8 35.1 91.7 83.6 286.8
14 18:20 17 53 7.67 7.4 15 17 1018.1 0 17.5 23.7 34.9 91.4 83.2 285.7
14 18:10 16.9 52 7.48 7 13 13 1018 0 17.1 23.5 34.3 89.6 81.0 277.9
14 18:00 17.4 50 7.41 6.9 13 19 1017.9 0 16.9 23.2 33.8 88.4 79.6 273.2
14 17:50 17.9 48 7.33 6.7 17 20 1017.8 0 16.7 23.0 33.3 87.0 78.2 268.1
14 17:40 18.1 48 7.42 6.9 19 24 1017.6 0 16.9 23.1 33.5 87.7 79.0 271.2
14 17:30 18.4 47 7.39 6.9 20 30 1017.5 0 16.8 22.9 33.3 87.1 78.4 268.9
14 17:20 18.5 48 7.59 7.3 22 24 1017.3 0 17.2 23.2 34.0 88.9 80.7 276.9
14 17:10 18.7 49 7.84 7.8 22 28 1017.3 0 17.7 23.5 34.8 91.1 83.5 286.7
14 17:00 19 48 7.82 7.8 24 32 1017.2 0 17.7 23.4 34.6 90.5 82.9 284.8
14 16:50 19.3 47 7.8 7.7 22 26 1017.2 0 17.6 23.3 34.4 90.0 82.3 282.9
14 16:40 19.4 45 7.51 7.2 26 32 1017.2 0 17.0 22.9 33.3 87.1 78.8 270.5
14 16:30 19.9 45 7.73 7.6 24 33 1017 0 17.5 23.0 33.9 88.6 80.9 277.9
14 16:20 20.1 44 7.65 7.5 24 30 1017 0 17.3 22.9 33.5 87.7 79.7 273.9
14 16:10 20.2 43 7.52 7.2 24 32 1016.9 0 17.0 22.7 33.0 86.3 78.1 268.2
14 16:00 20.2 45 7.87 7.9 26 35 1016.8 0 17.7 23.2 34.2 89.6 82.2 282.6
14 15:50 20.5 44 7.83 7.8 22 30 1016.8 0 17.6 23.0 34.0 88.9 81.4 279.9
14 15:40 19.9 45 7.73 7.6 26 33 1016.8 0 17.5 23.0 33.9 88.6 80.9 277.8
14 15:30 19.8 47 8.03 8.2 24 35 1016.7 0 18.1 23.5 35.0 91.6 84.5 290.6
14 15:20 20 48 8.29 8.7 19 22 1016.8 0 18.6 23.8 35.8 93.9 87.4 300.9
14 15:10 20 46 7.95 8 22 26 1016.7 0 17.9 23.3 34.6 90.6 83.4 286.6
14 15:00 20.3 46 8.09 8.3 24 32 1016.6 0 18.2 23.5 35.0 91.6 84.7 291.3
14 14:50 19.9 46 7.9 7.9 22 28 1016.6 0 17.8 23.3 34.5 90.2 82.9 284.8
14 14:40 20.1 45 7.82 7.8 24 30 1016.5 0 17.6 23.1 34.1 89.2 81.7 280.8
14 14:30 20.6 44 7.87 7.9 22 35 1016.3 0 17.7 23.0 34.1 89.2 81.8 281.1
14 14:20 20.8 42 7.6 7.4 22 26 1016.5 0 17.2 22.6 33.0 86.4 78.4 269.4
14 14:10 20.7 42 7.56 7.3 24 30 1016.5 0 17.1 22.6 32.9 86.1 78.1 268.1
14 14:00 21.1 41 7.55 7.3 22 35 1016.5 0 17.0 22.5 32.7 85.6 77.6 266.4
14 13:50 20.8 42 7.6 7.4 20 26 1016.7 0 17.2 22.6 33.0 86.4 78.4 269.4
14 13:40 21 41 7.51 7.3 26 35 1016.8 0 17.0 22.5 32.6 85.4 77.2 265.1
14 13:30 20.4 42 7.43 7.1 22 33 1016.6 0 16.8 22.5 32.6 85.2 76.9 263.8
14 13:20 20.4 43 7.61 7.4 24 30 1016.9 0 17.2 22.7 33.2 87.0 79.0 271.2
14 13:10 20.6 43 7.7 7.6 26 32 1017.1 0 17.4 22.8 33.5 87.6 79.8 274.3
14 13:00 20.1 43 7.47 7.1 24 33 1017.4 0 16.9 22.6 32.9 86.0 77.7 266.6
14 12:50 20.1 44 7.65 7.5 26 32 1017.6 0 17.3 22.9 33.5 87.7 79.8 274.0
14 12:40 20.1 46 8 8.1 26 30 1017.7 0 18.0 23.4 34.8 91.1 83.9 288.5
14 12:30 19.7 46 7.81 7.8 24 32 1017.8 0 17.6 23.2 34.3 89.7 82.1 282.1
14 12:20 19.3 46 7.63 7.4 30 33 1017.9 0 17.3 23.1 33.8 88.4 80.4 276.0
14 12:10 19.3 50 8.29 8.6 19 24 1018 0 18.7 24.1 36.2 94.9 88.3 303.8
14 12:00 18.9 50 8.1 8.3 19 28 1018.2 0 18.3 23.9 35.7 93.5 86.5 297.2
14 11:50 18.9 53 8.59 9.1 17 19 1018.5 0 19.3 24.6 37.5 98.4 92.5 318.3
14 11:40 18.8 52 8.37 8.7 20 24 1018.6 0 18.9 24.3 36.8 96.3 89.9 309.3
14 11:30 18.7 52 8.32 8.7 19 30 1018.7 0 18.8 24.3 36.6 95.9 89.4 307.5
14 11:20 18.2 55 8.55 9 19 22 1018.7 0 19.3 24.8 37.7 98.9 92.8 319.4
14 11:10 18.3 55 8.6 9.1 19 22 1018.9 0 19.4 24.8 37.9 99.3 93.3 321.3
14 11:00 18.3 57 8.91 9.6 20 30 1019 0 20.0 25.3 39.0 102.4 97.2 334.9
14 10:50 17.8 59 8.95 9.7 24 26 1019.1 0 20.1 25.5 39.4 103.5 98.4 338.8
14 10:40 17.6 60 9 9.8 24 30 1019.1 0 20.2 25.7 39.7 104.3 99.3 341.9
14 10:30 17.2 62 9.08 9.9 24 30 1019.1 0 20.4 25.9 40.3 105.6 100.8 347.3
14 10:20 17.3 63 9.28 10.2 24 28 1019 0 20.9 26.2 41.0 107.6 103.2 355.8
14 10:10 17 65 9.4 10.4 22 26 1019.1 0 21.1 26.5 41.6 109.3 105.2 362.7
14 10:00 16.9 66 9.49 10.5 19 28 1019 0 21.3 26.6 42.0 110.3 106.5 367.2
14 09:50 16.8 66 9.44 10.4 17 20 1019.1 0 21.2 26.6 41.9 110.0 106.0 365.4
14 09:40 16.6 67 9.46 10.5 19 20 1018.9 0 21.3 26.7 42.1 110.4 106.5 367.2
14 09:30 15.8 69 9.29 10.1 24 28 1018.9 0 21.0 26.6 41.8 109.7 105.4 363.1
14 09:20 15.9 66 8.94 9.6 19 20 1018.6 0 20.2 26.0 40.3 105.8 100.6 346.5
14 09:10 16.1 64 8.77 9.3 24 28 1018.5 0 19.8 25.7 39.6 103.8 98.1 337.8
14 09:00 16 65 8.86 9.4 22 32 1018.3 0 20.0 25.9 40.0 104.8 99.4 342.3
14 08:50 15.8 67 9.02 9.7 20 24 1018.3 0 20.4 26.2 40.7 106.8 101.8 350.5
14 08:40 15.7 61 8.16 8.2 19 20 1018.4 0 18.6 24.8 37.4 97.9 90.8 312.1
14 08:30 15.5 59 7.8 7.5 15 20 1018.2 0 17.8 24.3 36.1 94.5 86.5 296.9

Last Refresh: 15-Jun-2024 01:15:14

Bureau of Meteorology